Accueil
METAR-TAF:

METAR-TAF

Aéroports :

Koror, Babelthuap Island, Palaos

Aéroport international Roman-Tmetuchl

latitude: 07-22N, longitude: 134-32E, altitude: 54 m

Observation

Le bulletin a été fait il y a 53 minutes, à 03:50 UTC
Vent 10 kt de ouest
Température 32°C
Humidité 67%
Pression 1008 hPa
Visibilité: 24.1 km
Nuages épars à une hauteur de 1600 ft, Cumulus congestus.
Nuages fragmentés à une hauteur de 12000 ft
Nuages fragmentés à une hauteur de 30000 ft

METAR: PTRO 220350Z 26010KT 15SM SCT016TCU BKN120 BKN300 32/25 A2978 RMK TCU NE

Heure: 13:43 (04:43 UTC)

Prévision

Le bulletin a été fait il y a 5 heures et 22 minutes, à 23:21 UTC
Prévision valable du 22 à 00 UTC au 22 à 24 UTC
Vent 7 kt de sud-ouest
Visibilité: 10 km
Nuages épars à une hauteur de 1600 ft
Nuages épars à une hauteur de 3000 ft
averses à proximité

TAF: PTRO 212321Z 2200/2224 23007KT P6SM VCSH SCT016 SCT030

Observations et prévisions météorologiques de plus de 4000 aéroports (messages METAR et TAF).

Les stations disponibles sont représentées par des disques jaunes et rouges sur la carte.

Passer la souris dessus pour voir le nom de la station.

Cliquer dessus pour voir les observations et prévisions météorologiques.

Pour changer de carte: cliquez sur les boutons verts avec une croix noire pour zoomer, sur le bouton vert avec un tiret pour effectuer un zoom arrière, ou sur les flèches vertes pour les cartes adjacentes.


METAR-TAF: